Weather at Höganäs Airfield

Public forecast

Using degrees Celsius for public forecast. Weather courtesy of forecast.io.

Closest aviation weather report (METAR) to Höganäs Airfield

Closest report is Ängelholm-Helsingborg Airport, 11.2 nm (20.8 km) NE.

2024/05/30 10:20 (retrieved 35 minutes ago)

ESTA 301020Z 13013KT 9999 SCT024 BKN070 20/15 Q1007

Closest aviation forecast (TAF) to Höganäs Airfield

Closest forecast is Copenhagen Kastrup Airport, 34.1 nm (63.2 km) S.

2024/05/30 06:30 (retrieved 4 hours ago)

TAF EKCH 300508Z 3006/3106 13012KT 9999 FEW020 BKN040 TEMPO 3006/3007 4000 SHRA BR BKN012 BKN020CB TEMPO 3007/3009 BKN012 FEW020CB TEMPO 3009/3024 FEW020CB TEMPO 3100/3106 BKN008 SCT020CB